sensor_id;sensor_type;location;lat;lon;timestamp;temperature;humidity
6244;DHT22;3155;49.940;8.450;2023-06-22T00:01:27;21.30;99.90
6244;DHT22;3155;49.940;8.450;2023-06-22T00:03:54;21.30;99.90
6244;DHT22;3155;49.940;8.450;2023-06-22T00:06:25;21.30;62.50
6244;DHT22;3155;49.940;8.450;2023-06-22T00:08:51;21.30;99.90
6244;DHT22;3155;49.940;8.450;2023-06-22T00:11:42;21.40;83.80
6244;DHT22;3155;49.940;8.450;2023-06-22T00:14:09;21.50;1.00
6244;DHT22;3155;49.940;8.450;2023-06-22T00:16:36;21.50;1.00
6244;DHT22;3155;49.940;8.450;2023-06-22T00:19:02;21.50;1.00
6244;DHT22;3155;49.940;8.450;2023-06-22T00:21:30;21.50;1.00
6244;DHT22;3155;49.940;8.450;2023-06-22T00:23:57;21.60;1.00
6244;DHT22;3155;49.940;8.450;2023-06-22T00:26:24;21.60;99.90
6244;DHT22;3155;49.940;8.450;2023-06-22T00:28:51;21.60;1.00
6244;DHT22;3155;49.940;8.450;2023-06-22T00:31:18;21.60;1.00
6244;DHT22;3155;49.940;8.450;2023-06-22T00:33:45;21.50;1.00
6244;DHT22;3155;49.940;8.450;2023-06-22T00:36:11;21.50;1.00
6244;DHT22;3155;49.940;8.450;2023-06-22T00:38:42;21.40;99.90
6244;DHT22;3155;49.940;8.450;2023-06-22T00:41:09;21.40;99.90
6244;DHT22;3155;49.940;8.450;2023-06-22T00:43:36;21.30;1.00
6244;DHT22;3155;49.940;8.450;2023-06-22T00:46:03;21.20;99.90
6244;DHT22;3155;49.940;8.450;2023-06-22T00:48:30;21.20;99.90
6244;DHT22;3155;49.940;8.450;2023-06-22T00:50:56;21.20;1.00
6244;DHT22;3155;49.940;8.450;2023-06-22T00:53:23;21.20;1.00
6244;DHT22;3155;49.940;8.450;2023-06-22T00:55:50;21.20;99.90
6244;DHT22;3155;49.940;8.450;2023-06-22T00:58:21;21.20;46.00
6244;DHT22;3155;49.940;8.450;2023-06-22T01:00:55;20.90;99.90
6244;DHT22;3155;49.940;8.450;2023-06-22T01:03:23;20.40;1.20
6244;DHT22;3155;49.940;8.450;2023-06-22T01:05:55;20.00;99.90
6244;DHT22;3155;49.940;8.450;2023-06-22T01:11:12;19.50;1.00
6244;DHT22;3155;49.940;8.450;2023-06-22T01:16:23;19.20;1.00
6244;DHT22;3155;49.940;8.450;2023-06-22T01:18:55;19.20;32.20
6244;DHT22;3155;49.940;8.450;2023-06-22T01:21:25;19.30;99.90
6244;DHT22;3155;49.940;8.450;2023-06-22T01:23:58;19.20;99.90
6244;DHT22;3155;49.940;8.450;2023-06-22T01:26:36;19.00;99.90
6244;DHT22;3155;49.940;8.450;2023-06-22T01:29:06;18.90;99.90
6244;DHT22;3155;49.940;8.450;2023-06-22T01:31:34;18.80;99.90
6244;DHT22;3155;49.940;8.450;2023-06-22T01:34:05;18.80;99.90
6244;DHT22;3155;49.940;8.450;2023-06-22T01:36:33;18.80;99.90
6244;DHT22;3155;49.940;8.450;2023-06-22T01:39:02;18.80;99.90
6244;DHT22;3155;49.940;8.450;2023-06-22T01:41:33;18.70;99.90
6244;DHT22;3155;49.940;8.450;2023-06-22T01:44:01;18.60;99.90
6244;DHT22;3155;49.940;8.450;2023-06-22T01:46:29;18.60;99.90
6244;DHT22;3155;49.940;8.450;2023-06-22T01:48:56;18.60;99.90
6244;DHT22;3155;49.940;8.450;2023-06-22T01:51:23;18.60;99.90
6244;DHT22;3155;49.940;8.450;2023-06-22T01:53:50;18.60;99.90
6244;DHT22;3155;49.940;8.450;2023-06-22T01:56:17;18.60;99.90
6244;DHT22;3155;49.940;8.450;2023-06-22T02:01:59;18.60;99.90
6244;DHT22;3155;49.940;8.450;2023-06-22T02:04:46;18.70;99.90
6244;DHT22;3155;49.940;8.450;2023-06-22T02:07:18;18.60;99.90
6244;DHT22;3155;49.940;8.450;2023-06-22T02:09:49;18.60;99.90
6244;DHT22;3155;49.940;8.450;2023-06-22T02:12:24;18.70;99.90
6244;DHT22;3155;49.940;8.450;2023-06-22T02:14:52;18.70;99.90
6244;DHT22;3155;49.940;8.450;2023-06-22T02:17:19;18.80;99.90
6244;DHT22;3155;49.940;8.450;2023-06-22T02:19:46;18.90;99.90
6244;DHT22;3155;49.940;8.450;2023-06-22T02:22:12;19.00;99.90
6244;DHT22;3155;49.940;8.450;2023-06-22T02:24:40;19.00;99.90
6244;DHT22;3155;49.940;8.450;2023-06-22T02:27:07;19.00;99.90
6244;DHT22;3155;49.940;8.450;2023-06-22T02:29:37;19.00;99.90
6244;DHT22;3155;49.940;8.450;2023-06-22T02:32:04;19.00;99.90
6244;DHT22;3155;49.940;8.450;2023-06-22T02:34:31;18.90;99.90
6244;DHT22;3155;49.940;8.450;2023-06-22T02:37:00;19.00;99.90
6244;DHT22;3155;49.940;8.450;2023-06-22T02:39:27;19.10;99.90
6244;DHT22;3155;49.940;8.450;2023-06-22T02:41:54;19.10;99.90
6244;DHT22;3155;49.940;8.450;2023-06-22T02:44:21;19.10;99.90
6244;DHT22;3155;49.940;8.450;2023-06-22T02:46:48;19.10;99.90
6244;DHT22;3155;49.940;8.450;2023-06-22T02:49:15;19.10;99.90
6244;DHT22;3155;49.940;8.450;2023-06-22T02:51:47;19.10;99.90
6244;DHT22;3155;49.940;8.450;2023-06-22T02:54:14;19.10;99.90
6244;DHT22;3155;49.940;8.450;2023-06-22T02:56:42;19.00;99.90
6244;DHT22;3155;49.940;8.450;2023-06-22T02:59:10;19.00;99.90
6244;DHT22;3155;49.940;8.450;2023-06-22T03:01:37;19.00;99.90
6244;DHT22;3155;49.940;8.450;2023-06-22T03:04:07;19.00;99.90
6244;DHT22;3155;49.940;8.450;2023-06-22T03:06:35;19.00;99.90
6244;DHT22;3155;49.940;8.450;2023-06-22T03:09:04;18.90;99.90
6244;DHT22;3155;49.940;8.450;2023-06-22T03:11:32;18.80;99.90
6244;DHT22;3155;49.940;8.450;2023-06-22T03:14:00;18.80;99.90
6244;DHT22;3155;49.940;8.450;2023-06-22T03:16:27;18.70;99.90
6244;DHT22;3155;49.940;8.450;2023-06-22T03:18:54;18.60;99.90
6244;DHT22;3155;49.940;8.450;2023-06-22T03:21:27;18.60;99.90
6244;DHT22;3155;49.940;8.450;2023-06-22T03:23:54;18.50;99.90
6244;DHT22;3155;49.940;8.450;2023-06-22T03:26:23;18.50;99.90
6244;DHT22;3155;49.940;8.450;2023-06-22T03:28:54;18.50;99.90
6244;DHT22;3155;49.940;8.450;2023-06-22T03:31:21;18.50;99.90
6244;DHT22;3155;49.940;8.450;2023-06-22T03:33:49;18.50;99.90
6244;DHT22;3155;49.940;8.450;2023-06-22T03:36:17;18.50;99.90
6244;DHT22;3155;49.940;8.450;2023-06-22T03:38:48;18.50;99.90
6244;DHT22;3155;49.940;8.450;2023-06-22T03:41:16;18.50;99.90
6244;DHT22;3155;49.940;8.450;2023-06-22T03:43:43;18.50;99.90
6244;DHT22;3155;49.940;8.450;2023-06-22T03:46:09;18.50;99.90
6244;DHT22;3155;49.940;8.450;2023-06-22T03:48:37;18.50;99.90
6244;DHT22;3155;49.940;8.450;2023-06-22T03:51:04;18.60;99.90
6244;DHT22;3155;49.940;8.450;2023-06-22T03:53:31;18.60;99.90
6244;DHT22;3155;49.940;8.450;2023-06-22T03:56:00;18.70;99.90
6244;DHT22;3155;49.940;8.450;2023-06-22T03:58:27;18.80;99.90
6244;DHT22;3155;49.940;8.450;2023-06-22T04:00:59;18.90;99.90
6244;DHT22;3155;49.940;8.450;2023-06-22T04:03:26;19.00;99.90
6244;DHT22;3155;49.940;8.450;2023-06-22T04:05:53;19.10;99.90
6244;DHT22;3155;49.940;8.450;2023-06-22T04:08:20;19.10;99.90
6244;DHT22;3155;49.940;8.450;2023-06-22T04:10:47;19.10;99.90
6244;DHT22;3155;49.940;8.450;2023-06-22T04:13:17;19.20;99.90
6244;DHT22;3155;49.940;8.450;2023-06-22T04:15:44;19.20;99.90
6244;DHT22;3155;49.940;8.450;2023-06-22T04:18:10;19.30;99.90
6244;DHT22;3155;49.940;8.450;2023-06-22T04:20:37;19.30;99.90
6244;DHT22;3155;49.940;8.450;2023-06-22T04:23:04;19.40;99.90
6244;DHT22;3155;49.940;8.450;2023-06-22T04:25:33;19.40;99.90
6244;DHT22;3155;49.940;8.450;2023-06-22T04:28:00;19.40;99.90
6244;DHT22;3155;49.940;8.450;2023-06-22T04:30:33;19.50;99.90
6244;DHT22;3155;49.940;8.450;2023-06-22T04:33:00;19.50;99.90
6244;DHT22;3155;49.940;8.450;2023-06-22T04:35:27;19.50;99.90
6244;DHT22;3155;49.940;8.450;2023-06-22T04:37:58;19.60;99.90
6244;DHT22;3155;49.940;8.450;2023-06-22T04:40:25;19.70;99.90
6244;DHT22;3155;49.940;8.450;2023-06-22T04:42:53;19.80;99.90
6244;DHT22;3155;49.940;8.450;2023-06-22T04:45:20;19.90;99.90
6244;DHT22;3155;49.940;8.450;2023-06-22T04:47:48;20.00;99.90
6244;DHT22;3155;49.940;8.450;2023-06-22T04:50:15;20.00;99.90
6244;DHT22;3155;49.940;8.450;2023-06-22T04:52:41;20.10;99.90
6244;DHT22;3155;49.940;8.450;2023-06-22T04:55:09;20.20;99.90
6244;DHT22;3155;49.940;8.450;2023-06-22T04:57:38;20.30;99.90
6244;DHT22;3155;49.940;8.450;2023-06-22T05:00:06;20.30;99.90
6244;DHT22;3155;49.940;8.450;2023-06-22T05:02:40;20.40;99.90
6244;DHT22;3155;49.940;8.450;2023-06-22T05:05:08;20.60;99.90
6244;DHT22;3155;49.940;8.450;2023-06-22T05:07:35;20.60;99.90
6244;DHT22;3155;49.940;8.450;2023-06-22T05:10:03;20.60;99.90
6244;DHT22;3155;49.940;8.450;2023-06-22T05:12:30;20.60;99.90
6244;DHT22;3155;49.940;8.450;2023-06-22T05:14:57;20.70;1.00
6244;DHT22;3155;49.940;8.450;2023-06-22T05:17:24;20.80;1.00
6244;DHT22;3155;49.940;8.450;2023-06-22T05:19:54;21.10;1.00
6244;DHT22;3155;49.940;8.450;2023-06-22T05:22:21;21.60;1.00
6244;DHT22;3155;49.940;8.450;2023-06-22T05:24:48;22.20;99.90
6244;DHT22;3155;49.940;8.450;2023-06-22T05:27:32;22.80;1.00
6244;DHT22;3155;49.940;8.450;2023-06-22T05:30:00;23.60;99.90
6244;DHT22;3155;49.940;8.450;2023-06-22T05:32:44;24.00;99.90
6244;DHT22;3155;49.940;8.450;2023-06-22T05:35:29;24.50;28.10
6244;DHT22;3155;49.940;8.450;2023-06-22T05:37:56;24.90;1.00
6244;DHT22;3155;49.940;8.450;2023-06-22T05:40:23;25.40;99.90
6244;DHT22;3155;49.940;8.450;2023-06-22T05:42:51;25.80;1.00
6244;DHT22;3155;49.940;8.450;2023-06-22T05:45:18;26.10;1.00
6244;DHT22;3155;49.940;8.450;2023-06-22T05:47:45;26.20;1.00
6244;DHT22;3155;49.940;8.450;2023-06-22T05:50:12;26.50;1.00
6244;DHT22;3155;49.940;8.450;2023-06-22T05:52:39;26.90;99.90
6244;DHT22;3155;49.940;8.450;2023-06-22T05:55:06;27.20;99.90
6244;DHT22;3155;49.940;8.450;2023-06-22T05:57:33;27.50;99.90
6244;DHT22;3155;49.940;8.450;2023-06-22T05:59:59;27.50;99.90
6244;DHT22;3155;49.940;8.450;2023-06-22T06:02:26;27.50;99.90
6244;DHT22;3155;49.940;8.450;2023-06-22T06:04:53;27.90;99.90
6244;DHT22;3155;49.940;8.450;2023-06-22T06:07:21;28.00;99.90
6244;DHT22;3155;49.940;8.450;2023-06-22T06:09:50;28.30;99.90
6244;DHT22;3155;49.940;8.450;2023-06-22T06:12:17;28.40;99.90
6244;DHT22;3155;49.940;8.450;2023-06-22T06:14:44;28.60;99.90
6244;DHT22;3155;49.940;8.450;2023-06-22T06:17:10;28.90;99.90
6244;DHT22;3155;49.940;8.450;2023-06-22T06:19:37;29.10;99.90
6244;DHT22;3155;49.940;8.450;2023-06-22T06:22:04;29.30;99.90
6244;DHT22;3155;49.940;8.450;2023-06-22T06:24:31;29.40;99.90
6244;DHT22;3155;49.940;8.450;2023-06-22T06:26:58;28.90;99.90
6244;DHT22;3155;49.940;8.450;2023-06-22T06:29:25;28.90;99.90
6244;DHT22;3155;49.940;8.450;2023-06-22T06:31:51;29.20;99.90
6244;DHT22;3155;49.940;8.450;2023-06-22T06:34:20;29.50;99.90
6244;DHT22;3155;49.940;8.450;2023-06-22T06:36:47;29.90;99.90
6244;DHT22;3155;49.940;8.450;2023-06-22T06:39:14;30.20;99.90
6244;DHT22;3155;49.940;8.450;2023-06-22T06:41:45;30.10;99.90
6244;DHT22;3155;49.940;8.450;2023-06-22T06:44:11;30.20;99.90
6244;DHT22;3155;49.940;8.450;2023-06-22T06:46:38;30.20;99.90
6244;DHT22;3155;49.940;8.450;2023-06-22T06:49:05;29.90;99.90
6244;DHT22;3155;49.940;8.450;2023-06-22T06:51:32;30.20;99.90
6244;DHT22;3155;49.940;8.450;2023-06-22T06:53:58;30.40;99.90
6244;DHT22;3155;49.940;8.450;2023-06-22T06:56:25;30.30;99.90
6244;DHT22;3155;49.940;8.450;2023-06-22T06:58:52;29.80;99.90
6244;DHT22;3155;49.940;8.450;2023-06-22T07:01:19;29.60;99.90
6244;DHT22;3155;49.940;8.450;2023-06-22T07:03:48;29.30;99.90
6244;DHT22;3155;49.940;8.450;2023-06-22T07:06:15;29.50;99.90
6244;DHT22;3155;49.940;8.450;2023-06-22T07:08:43;29.60;99.90
6244;DHT22;3155;49.940;8.450;2023-06-22T07:11:10;29.50;99.90
6244;DHT22;3155;49.940;8.450;2023-06-22T07:13:36;28.90;99.90
6244;DHT22;3155;49.940;8.450;2023-06-22T07:16:03;28.70;99.90
6244;DHT22;3155;49.940;8.450;2023-06-22T07:18:30;28.60;99.90
6244;DHT22;3155;49.940;8.450;2023-06-22T07:20:57;28.50;99.90
6244;DHT22;3155;49.940;8.450;2023-06-22T07:23:24;29.00;99.90
6244;DHT22;3155;49.940;8.450;2023-06-22T07:25:53;29.20;99.90
6244;DHT22;3155;49.940;8.450;2023-06-22T07:28:20;29.20;99.90
6244;DHT22;3155;49.940;8.450;2023-06-22T07:30:47;29.60;99.90
6244;DHT22;3155;49.940;8.450;2023-06-22T07:33:14;29.90;99.90
6244;DHT22;3155;49.940;8.450;2023-06-22T07:35:41;29.80;99.90
6244;DHT22;3155;49.940;8.450;2023-06-22T07:38:08;30.20;99.90
6244;DHT22;3155;49.940;8.450;2023-06-22T07:40:38;30.60;99.90
6244;DHT22;3155;49.940;8.450;2023-06-22T07:43:04;30.70;99.90
6244;DHT22;3155;49.940;8.450;2023-06-22T07:45:31;31.20;99.90
6244;DHT22;3155;49.940;8.450;2023-06-22T07:48:02;31.20;99.90
6244;DHT22;3155;49.940;8.450;2023-06-22T07:50:28;30.80;99.90
6244;DHT22;3155;49.940;8.450;2023-06-22T07:52:57;31.20;99.90
6244;DHT22;3155;49.940;8.450;2023-06-22T07:55:23;31.00;99.90
6244;DHT22;3155;49.940;8.450;2023-06-22T07:57:50;31.30;99.90
6244;DHT22;3155;49.940;8.450;2023-06-22T08:00:18;31.50;99.90
6244;DHT22;3155;49.940;8.450;2023-06-22T08:02:47;31.30;99.90
6244;DHT22;3155;49.940;8.450;2023-06-22T08:05:18;31.20;99.90
6244;DHT22;3155;49.940;8.450;2023-06-22T08:07:49;31.50;99.90
6244;DHT22;3155;49.940;8.450;2023-06-22T08:10:16;31.30;99.90
6244;DHT22;3155;49.940;8.450;2023-06-22T08:12:43;31.60;99.90
6244;DHT22;3155;49.940;8.450;2023-06-22T08:15:17;31.80;99.90
6244;DHT22;3155;49.940;8.450;2023-06-22T08:17:44;32.30;99.90
6244;DHT22;3155;49.940;8.450;2023-06-22T08:20:12;32.10;99.90
6244;DHT22;3155;49.940;8.450;2023-06-22T08:22:42;32.40;99.90
6244;DHT22;3155;49.940;8.450;2023-06-22T08:25:09;32.30;99.90
6244;DHT22;3155;49.940;8.450;2023-06-22T08:27:39;32.20;99.90
6244;DHT22;3155;49.940;8.450;2023-06-22T08:30:07;32.30;99.90
6244;DHT22;3155;49.940;8.450;2023-06-22T08:32:34;31.70;99.90
6244;DHT22;3155;49.940;8.450;2023-06-22T08:35:01;31.70;99.90
6244;DHT22;3155;49.940;8.450;2023-06-22T08:37:30;31.90;99.90
6244;DHT22;3155;49.940;8.450;2023-06-22T08:39:59;32.00;99.90
6244;DHT22;3155;49.940;8.450;2023-06-22T08:42:28;31.80;99.90
6244;DHT22;3155;49.940;8.450;2023-06-22T08:44:55;31.40;99.90
6244;DHT22;3155;49.940;8.450;2023-06-22T08:47:22;31.50;99.90
6244;DHT22;3155;49.940;8.450;2023-06-22T08:49:49;31.30;99.90
6244;DHT22;3155;49.940;8.450;2023-06-22T08:52:17;31.00;99.90
6244;DHT22;3155;49.940;8.450;2023-06-22T08:54:47;30.90;99.90
6244;DHT22;3155;49.940;8.450;2023-06-22T08:57:13;30.90;99.90
6244;DHT22;3155;49.940;8.450;2023-06-22T08:59:40;30.70;99.90
6244;DHT22;3155;49.940;8.450;2023-06-22T09:02:10;30.80;99.90
6244;DHT22;3155;49.940;8.450;2023-06-22T09:04:37;30.90;99.90
6244;DHT22;3155;49.940;8.450;2023-06-22T09:07:04;30.90;99.90
6244;DHT22;3155;49.940;8.450;2023-06-22T09:09:31;31.00;99.90
6244;DHT22;3155;49.940;8.450;2023-06-22T09:11:58;31.60;99.90
6244;DHT22;3155;49.940;8.450;2023-06-22T09:14:24;31.60;99.90
6244;DHT22;3155;49.940;8.450;2023-06-22T09:16:51;31.30;99.90
6244;DHT22;3155;49.940;8.450;2023-06-22T09:19:18;31.90;99.90
6244;DHT22;3155;49.940;8.450;2023-06-22T09:21:45;32.20;99.90
6244;DHT22;3155;49.940;8.450;2023-06-22T09:24:11;32.40;99.90
6244;DHT22;3155;49.940;8.450;2023-06-22T09:26:39;32.60;99.90
6244;DHT22;3155;49.940;8.450;2023-06-22T09:29:06;32.20;99.90
6244;DHT22;3155;49.940;8.450;2023-06-22T09:31:36;31.70;99.90
6244;DHT22;3155;49.940;8.450;2023-06-22T09:34:06;31.10;99.90
6244;DHT22;3155;49.940;8.450;2023-06-22T09:36:36;31.20;99.90
6244;DHT22;3155;49.940;8.450;2023-06-22T09:39:03;31.60;99.90
6244;DHT22;3155;49.940;8.450;2023-06-22T09:41:32;31.90;99.90
6244;DHT22;3155;49.940;8.450;2023-06-22T09:43:59;32.10;99.90
6244;DHT22;3155;49.940;8.450;2023-06-22T09:46:26;32.70;99.90
6244;DHT22;3155;49.940;8.450;2023-06-22T09:48:53;33.20;99.90
6244;DHT22;3155;49.940;8.450;2023-06-22T09:51:20;33.50;99.90
6244;DHT22;3155;49.940;8.450;2023-06-22T09:53:48;33.30;99.90
6244;DHT22;3155;49.940;8.450;2023-06-22T09:56:15;32.80;99.90
6244;DHT22;3155;49.940;8.450;2023-06-22T09:58:43;33.20;99.90
6244;DHT22;3155;49.940;8.450;2023-06-22T10:01:10;32.40;99.90
6244;DHT22;3155;49.940;8.450;2023-06-22T10:03:37;32.20;99.90
6244;DHT22;3155;49.940;8.450;2023-06-22T10:06:04;32.80;99.90
6244;DHT22;3155;49.940;8.450;2023-06-22T10:08:31;32.40;99.90
6244;DHT22;3155;49.940;8.450;2023-06-22T10:10:58;31.90;99.90
6244;DHT22;3155;49.940;8.450;2023-06-22T10:13:25;31.90;99.90
6244;DHT22;3155;49.940;8.450;2023-06-22T10:15:52;32.10;99.90
6244;DHT22;3155;49.940;8.450;2023-06-22T10:18:19;32.40;99.90
6244;DHT22;3155;49.940;8.450;2023-06-22T10:20:48;33.20;99.90
6244;DHT22;3155;49.940;8.450;2023-06-22T10:23:15;33.50;99.90
6244;DHT22;3155;49.940;8.450;2023-06-22T10:25:43;33.50;99.90
6244;DHT22;3155;49.940;8.450;2023-06-22T10:28:12;33.40;99.90
6244;DHT22;3155;49.940;8.450;2023-06-22T10:30:40;33.90;99.90
6244;DHT22;3155;49.940;8.450;2023-06-22T10:33:10;34.00;99.90
6244;DHT22;3155;49.940;8.450;2023-06-22T10:35:38;33.90;99.90
6244;DHT22;3155;49.940;8.450;2023-06-22T10:38:05;34.60;99.90
6244;DHT22;3155;49.940;8.450;2023-06-22T10:40:32;34.20;99.90
6244;DHT22;3155;49.940;8.450;2023-06-22T10:42:59;33.90;99.90
6244;DHT22;3155;49.940;8.450;2023-06-22T10:45:26;34.00;99.90
6244;DHT22;3155;49.940;8.450;2023-06-22T10:47:54;33.90;99.90
6244;DHT22;3155;49.940;8.450;2023-06-22T10:50:25;33.40;99.90
6244;DHT22;3155;49.940;8.450;2023-06-22T10:52:53;33.30;99.90
6244;DHT22;3155;49.940;8.450;2023-06-22T10:55:21;33.60;99.90
6244;DHT22;3155;49.940;8.450;2023-06-22T10:57:48;33.60;99.90
6244;DHT22;3155;49.940;8.450;2023-06-22T11:00:16;33.40;99.90
6244;DHT22;3155;49.940;8.450;2023-06-22T11:02:48;33.20;99.90
6244;DHT22;3155;49.940;8.450;2023-06-22T11:05:15;32.40;99.90
6244;DHT22;3155;49.940;8.450;2023-06-22T11:07:43;32.50;99.90
6244;DHT22;3155;49.940;8.450;2023-06-22T11:10:15;32.60;99.90
6244;DHT22;3155;49.940;8.450;2023-06-22T11:12:42;32.40;99.90
6244;DHT22;3155;49.940;8.450;2023-06-22T11:15:09;32.90;99.90
6244;DHT22;3155;49.940;8.450;2023-06-22T11:17:37;33.20;99.90
6244;DHT22;3155;49.940;8.450;2023-06-22T11:20:05;32.90;99.90
6244;DHT22;3155;49.940;8.450;2023-06-22T11:22:39;33.30;99.90
6244;DHT22;3155;49.940;8.450;2023-06-22T11:25:06;33.40;99.90
6244;DHT22;3155;49.940;8.450;2023-06-22T11:27:34;32.90;99.90
6244;DHT22;3155;49.940;8.450;2023-06-22T11:30:01;32.90;99.90
6244;DHT22;3155;49.940;8.450;2023-06-22T11:32:31;33.30;99.90
6244;DHT22;3155;49.940;8.450;2023-06-22T11:34:58;33.00;99.90
6244;DHT22;3155;49.940;8.450;2023-06-22T11:37:25;32.40;99.90
6244;DHT22;3155;49.940;8.450;2023-06-22T11:39:52;32.60;99.90
6244;DHT22;3155;49.940;8.450;2023-06-22T11:42:32;32.90;99.90
6244;DHT22;3155;49.940;8.450;2023-06-22T11:45:00;32.90;99.90
6244;DHT22;3155;49.940;8.450;2023-06-22T11:47:29;33.10;99.90
6244;DHT22;3155;49.940;8.450;2023-06-22T11:49:56;33.40;99.90
6244;DHT22;3155;49.940;8.450;2023-06-22T11:52:28;33.90;99.90
6244;DHT22;3155;49.940;8.450;2023-06-22T11:54:54;33.80;99.90
6244;DHT22;3155;49.940;8.450;2023-06-22T11:57:21;33.90;99.90
6244;DHT22;3155;49.940;8.450;2023-06-22T11:59:50;33.90;99.90
6244;DHT22;3155;49.940;8.450;2023-06-22T12:02:18;33.90;99.90
6244;DHT22;3155;49.940;8.450;2023-06-22T12:04:45;34.30;99.90
6244;DHT22;3155;49.940;8.450;2023-06-22T12:07:13;34.60;99.90
6244;DHT22;3155;49.940;8.450;2023-06-22T12:09:41;34.80;99.90
6244;DHT22;3155;49.940;8.450;2023-06-22T12:12:08;35.10;99.90
6244;DHT22;3155;49.940;8.450;2023-06-22T12:14:35;34.20;99.90
6244;DHT22;3155;49.940;8.450;2023-06-22T12:17:02;34.60;99.90
6244;DHT22;3155;49.940;8.450;2023-06-22T12:19:29;34.40;99.90
6244;DHT22;3155;49.940;8.450;2023-06-22T12:21:56;34.60;99.90
6244;DHT22;3155;49.940;8.450;2023-06-22T12:24:25;35.00;99.90
6244;DHT22;3155;49.940;8.450;2023-06-22T12:26:52;35.10;99.90
6244;DHT22;3155;49.940;8.450;2023-06-22T12:29:22;34.80;99.90
6244;DHT22;3155;49.940;8.450;2023-06-22T12:31:48;34.10;99.90
6244;DHT22;3155;49.940;8.450;2023-06-22T12:34:16;34.00;99.90
6244;DHT22;3155;49.940;8.450;2023-06-22T12:36:43;33.70;99.90
6244;DHT22;3155;49.940;8.450;2023-06-22T12:39:10;34.00;99.90
6244;DHT22;3155;49.940;8.450;2023-06-22T12:41:42;34.10;99.90
6244;DHT22;3155;49.940;8.450;2023-06-22T12:44:12;34.40;99.90
6244;DHT22;3155;49.940;8.450;2023-06-22T12:46:40;34.90;99.90
6244;DHT22;3155;49.940;8.450;2023-06-22T12:49:07;35.20;99.90
6244;DHT22;3155;49.940;8.450;2023-06-22T12:51:39;35.40;99.90
6244;DHT22;3155;49.940;8.450;2023-06-22T12:54:06;35.30;99.90
6244;DHT22;3155;49.940;8.450;2023-06-22T12:56:33;34.90;99.90
6244;DHT22;3155;49.940;8.450;2023-06-22T12:59:03;34.70;99.90
6244;DHT22;3155;49.940;8.450;2023-06-22T13:01:31;34.40;99.90
6244;DHT22;3155;49.940;8.450;2023-06-22T13:03:58;34.90;99.90
6244;DHT22;3155;49.940;8.450;2023-06-22T13:06:32;35.10;99.90
6244;DHT22;3155;49.940;8.450;2023-06-22T13:08:59;35.80;99.90
6244;DHT22;3155;49.940;8.450;2023-06-22T13:11:45;36.40;99.90
6244;DHT22;3155;49.940;8.450;2023-06-22T13:14:13;36.20;99.90
6244;DHT22;3155;49.940;8.450;2023-06-22T13:16:40;36.00;99.90
6244;DHT22;3155;49.940;8.450;2023-06-22T13:19:14;35.70;99.90
6244;DHT22;3155;49.940;8.450;2023-06-22T13:21:41;35.40;99.90
6244;DHT22;3155;49.940;8.450;2023-06-22T13:24:08;34.90;99.90
6244;DHT22;3155;49.940;8.450;2023-06-22T13:26:35;34.70;99.90
6244;DHT22;3155;49.940;8.450;2023-06-22T13:29:05;34.40;99.90
6244;DHT22;3155;49.940;8.450;2023-06-22T13:31:37;34.60;99.90
6244;DHT22;3155;49.940;8.450;2023-06-22T13:34:05;35.30;99.90
6244;DHT22;3155;49.940;8.450;2023-06-22T13:36:32;35.80;99.90
6244;DHT22;3155;49.940;8.450;2023-06-22T13:39:00;36.70;99.90
6244;DHT22;3155;49.940;8.450;2023-06-22T13:41:45;36.60;99.90
6244;DHT22;3155;49.940;8.450;2023-06-22T13:44:12;35.90;99.90
6244;DHT22;3155;49.940;8.450;2023-06-22T13:46:53;35.90;99.90
6244;DHT22;3155;49.940;8.450;2023-06-22T13:49:38;36.00;99.90
6244;DHT22;3155;49.940;8.450;2023-06-22T13:52:05;35.90;99.90
6244;DHT22;3155;49.940;8.450;2023-06-22T13:54:39;36.50;99.90
6244;DHT22;3155;49.940;8.450;2023-06-22T13:57:08;36.20;99.90
6244;DHT22;3155;49.940;8.450;2023-06-22T13:59:36;36.20;99.90
6244;DHT22;3155;49.940;8.450;2023-06-22T14:02:13;35.70;99.90
6244;DHT22;3155;49.940;8.450;2023-06-22T14:04:40;35.60;99.90
6244;DHT22;3155;49.940;8.450;2023-06-22T14:07:10;35.70;99.90
6244;DHT22;3155;49.940;8.450;2023-06-22T14:09:40;35.30;99.90
6244;DHT22;3155;49.940;8.450;2023-06-22T14:12:07;35.60;99.90
6244;DHT22;3155;49.940;8.450;2023-06-22T14:14:34;35.80;99.90
6244;DHT22;3155;49.940;8.450;2023-06-22T14:17:01;35.70;99.90
6244;DHT22;3155;49.940;8.450;2023-06-22T14:19:32;35.60;99.90
6244;DHT22;3155;49.940;8.450;2023-06-22T14:22:00;35.80;99.90
6244;DHT22;3155;49.940;8.450;2023-06-22T14:24:26;35.50;99.90
6244;DHT22;3155;49.940;8.450;2023-06-22T14:26:56;34.90;99.90
6244;DHT22;3155;49.940;8.450;2023-06-22T14:29:25;34.40;99.90
6244;DHT22;3155;49.940;8.450;2023-06-22T14:31:52;34.20;99.90
6244;DHT22;3155;49.940;8.450;2023-06-22T14:34:19;33.70;99.90
6244;DHT22;3155;49.940;8.450;2023-06-22T14:36:49;33.30;99.90
6244;DHT22;3155;49.940;8.450;2023-06-22T14:39:17;33.30;99.90
6244;DHT22;3155;49.940;8.450;2023-06-22T14:41:44;33.30;99.90
6244;DHT22;3155;49.940;8.450;2023-06-22T14:44:11;33.50;99.90
6244;DHT22;3155;49.940;8.450;2023-06-22T14:46:37;33.60;99.90
6244;DHT22;3155;49.940;8.450;2023-06-22T14:49:07;33.40;99.90
6244;DHT22;3155;49.940;8.450;2023-06-22T14:51:34;32.90;99.90
6244;DHT22;3155;49.940;8.450;2023-06-22T14:54:01;32.50;99.90
6244;DHT22;3155;49.940;8.450;2023-06-22T14:56:27;32.30;99.90
6244;DHT22;3155;49.940;8.450;2023-06-22T14:58:54;32.10;99.90
6244;DHT22;3155;49.940;8.450;2023-06-22T15:01:23;32.00;99.90
6244;DHT22;3155;49.940;8.450;2023-06-22T15:03:50;31.60;99.90
6244;DHT22;3155;49.940;8.450;2023-06-22T15:06:17;31.30;99.90
6244;DHT22;3155;49.940;8.450;2023-06-22T15:08:44;31.20;99.90
6244;DHT22;3155;49.940;8.450;2023-06-22T15:11:13;31.20;99.90
6244;DHT22;3155;49.940;8.450;2023-06-22T15:13:40;31.50;99.90
6244;DHT22;3155;49.940;8.450;2023-06-22T15:16:08;32.20;99.90
6244;DHT22;3155;49.940;8.450;2023-06-22T15:18:35;32.60;99.90
6244;DHT22;3155;49.940;8.450;2023-06-22T15:21:04;32.90;99.90
6244;DHT22;3155;49.940;8.450;2023-06-22T15:23:31;33.00;99.90
6244;DHT22;3155;49.940;8.450;2023-06-22T15:26:03;32.90;99.90
6244;DHT22;3155;49.940;8.450;2023-06-22T15:28:32;33.40;99.90
6244;DHT22;3155;49.940;8.450;2023-06-22T15:31:00;33.60;99.90
6244;DHT22;3155;49.940;8.450;2023-06-22T15:33:27;33.90;99.90
6244;DHT22;3155;49.940;8.450;2023-06-22T15:35:54;33.90;99.90
6244;DHT22;3155;49.940;8.450;2023-06-22T15:38:22;33.70;99.90
6244;DHT22;3155;49.940;8.450;2023-06-22T15:40:49;33.30;99.90
6244;DHT22;3155;49.940;8.450;2023-06-22T15:43:16;32.60;99.90
6244;DHT22;3155;49.940;8.450;2023-06-22T15:45:43;32.30;99.90
6244;DHT22;3155;49.940;8.450;2023-06-22T15:48:09;32.00;99.90
6244;DHT22;3155;49.940;8.450;2023-06-22T15:50:36;31.70;99.90
6244;DHT22;3155;49.940;8.450;2023-06-22T15:53:09;31.40;99.90
6244;DHT22;3155;49.940;8.450;2023-06-22T15:55:36;31.00;99.90
6244;DHT22;3155;49.940;8.450;2023-06-22T15:58:03;30.70;99.90
6244;DHT22;3155;49.940;8.450;2023-06-22T16:00:30;30.50;99.90
6244;DHT22;3155;49.940;8.450;2023-06-22T16:02:58;30.30;99.90
6244;DHT22;3155;49.940;8.450;2023-06-22T16:05:28;30.00;99.90
6244;DHT22;3155;49.940;8.450;2023-06-22T16:07:59;29.90;99.90
6244;DHT22;3155;49.940;8.450;2023-06-22T16:10:26;29.80;99.90
